TimeCDT,TemperatureF,Dew PointF,Humidity,Sea Level PressureIn,VisibilityMPH,Wind Direction,Wind SpeedMPH,Gust SpeedMPH,PrecipitationIn,Events,Conditions,WindDirDegrees,DateUTC
12:53 AM,66.0,30.9,27,29.71,10.0,South,17.3,-,N/A,,Clear,170,2013-04-29 05:53:00
1:53 AM,62.1,33.1,34,29.73,10.0,South,17.3,-,N/A,,Clear,190,2013-04-29 06:53:00
2:53 AM,60.1,34.0,38,29.71,10.0,SSW,15.0,-,N/A,,Clear,210,2013-04-29 07:53:00
3:53 AM,63.0,35.1,35,29.69,10.0,SSW,16.1,-,N/A,,Clear,210,2013-04-29 08:53:00
4:53 AM,62.1,36.0,38,29.70,10.0,SSW,17.3,-,N/A,,Clear,210,2013-04-29 09:53:00
5:53 AM,62.1,37.0,39,29.70,10.0,SW,19.6,-,N/A,,Clear,220,2013-04-29 10:53:00
6:53 AM,60.1,37.9,44,29.71,10.0,SW,20.7,-,N/A,,Clear,220,2013-04-29 11:53:00
7:53 AM,61.0,39.0,44,29.73,10.0,SSW,19.6,-,N/A,,Clear,210,2013-04-29 12:53:00
8:53 AM,66.9,39.9,37,29.74,10.0,SSW,21.9,27.6,N/A,,Clear,210,2013-04-29 13:53:00
9:53 AM,75.0,39.9,28,29.71,10.0,SSW,20.7,25.3,N/A,,Clear,210,2013-04-29 14:53:00
10:53 AM,82.0,37.0,20,29.69,10.0,SW,24.2,35.7,N/A,,Clear,230,2013-04-29 15:53:00
11:53 AM,84.9,37.0,18,29.68,10.0,SSW,25.3,34.5,N/A,,Clear,210,2013-04-29 16:53:00
12:53 PM,87.8,32.0,14,29.82,10.0,SSW,19.6,32.2,N/A,,Clear,210,2013-04-29 17:53:00
1:53 PM,90.0,28.0,11,29.63,10.0,SW,21.9,27.6,N/A,,Clear,220,2013-04-29 18:53:00
2:53 PM,91.9,24.1,9,29.60,10.0,SW,19.6,42.6,N/A,,Clear,220,2013-04-29 19:53:00
3:53 PM,91.9,26.1,9,29.56,10.0,SSW,20.7,32.2,N/A,,Clear,200,2013-04-29 20:53:00
4:53 PM,93.0,19.9,7,29.53,10.0,SSW,19.6,28.8,N/A,,Clear,200,2013-04-29 21:53:00
5:53 PM,91.0,12.0,5,29.51,10.0,SSW,16.1,31.1,N/A,,Clear,210,2013-04-29 22:53:00
6:53 PM,89.1,19.9,8,29.51,10.0,South,20.7,-,N/A,,Clear,170,2013-04-29 23:53:00
7:53 PM,86.0,25.0,11,29.51,10.0,South,25.3,32.2,N/A,,Clear,170,2013-04-30 00:53:00
8:53 PM,81.0,28.9,15,29.53,10.0,South,23.0,31.1,N/A,,Clear,170,2013-04-30 01:53:00
9:53 PM,75.9,28.9,18,29.54,10.0,SSE,15.0,-,N/A,,Clear,150,2013-04-30 02:53:00
10:53 PM,75.9,32.0,20,29.55,10.0,SSE,21.9,33.4,N/A,,Clear,160,2013-04-30 03:53:00
11:53 PM,73.9,32.0,21,29.54,10.0,South,27.6,33.4,N/A,,Clear,170,2013-04-30 04:53:00